Time;durP1;ratioP1;P1;durP2;ratioP2;P2;SDS_P1;SDS_P2;PMS_P1;PMS_P2;Temp;Humidity;BMP_temperature;BMP_pressure;BME280_temperature;BME280_humidity;BME280_pressure;Samples;Min_cycle;Max_cycle;Signal;HPM_P1;HPM_P2
2023/10/02 00:00:43;;;;;;;5.78;3.75;;;;;;;;;;5083949;28;20449;-68
2023/10/02 00:03:11;;;;;;;5.00;3.78;;;;;;;;;;5082683;28;20055;-66
2023/10/02 00:05:50;;;;;;;4.90;3.42;;;;;;;;;;5082199;28;20054;-67
2023/10/02 00:08:42;;;;;;;4.72;3.15;;;;;;;;;;5080630;28;20593;-67
2023/10/02 00:14:22;;;;;;;5.45;3.78;;;;;;;;;;5081976;28;20048;-67
2023/10/02 00:17:03;;;;;;;3.83;2.97;;;;;;;;;;5079133;28;20067;-67
2023/10/02 00:19:35;;;;;;;4.07;3.35;;;;;;;;;;5080241;28;20432;-68
2023/10/02 00:22:06;;;;;;;6.50;3.58;;;;;;;;;;5077294;28;20106;-67
2023/10/02 00:24:37;;;;;;;3.85;3.45;;;;;;;;;;5081983;28;20048;-67
2023/10/02 00:27:07;;;;;;;3.72;3.20;;;;;;;;;;5081283;28;20036;-67
2023/10/02 00:29:50;;;;;;;4.78;3.63;;;;;;;;;;5079781;28;20044;-67
2023/10/02 00:32:20;;;;;;;3.38;3.08;;;;;;;;;;5080532;28;20076;-68
2023/10/02 00:34:50;;;;;;;4.22;3.33;;;;;;;;;;5081669;28;20094;-68
2023/10/02 00:37:19;;;;;;;5.03;3.45;;;;;;;;;;5080754;28;20050;-67
2023/10/02 00:39:48;;;;;;;5.07;3.47;;;;;;;;;;5080573;28;20052;-67
2023/10/02 00:42:16;;;;;;;5.88;4.00;;;;;;;;;;5081573;28;20078;-67
2023/10/02 00:44:54;;;;;;;5.95;3.42;;;;;;;;;;5077048;28;20048;-68
2023/10/02 00:47:38;;;;;;;5.05;3.38;;;;;;;;;;5080669;28;20120;-67
2023/10/02 00:50:10;;;;;;;5.22;3.67;;;;;;;;;;5079630;28;20428;-68
2023/10/02 00:52:40;;;;;;;3.83;3.47;;;;;;;;;;5082683;28;20036;-67
2023/10/02 00:55:10;;;;;;;6.38;3.65;;;;;;;;;;5074752;28;20044;-68
2023/10/02 00:57:38;;;;;;;4.63;3.47;;;;;;;;;;5079921;28;20063;-67
2023/10/02 01:00:20;;;;;;;5.70;3.90;;;;;;;;;;5076489;28;20048;-68
2023/10/02 01:02:48;;;;;;;4.82;3.67;;;;;;;;;;5083859;28;20141;-68
2023/10/02 01:05:21;;;;;;;5.00;3.13;;;;;;;;;;5078597;28;20059;-67
2023/10/02 01:07:53;;;;;;;4.38;3.65;;;;;;;;;;5080926;28;20089;-68
2023/10/02 01:10:23;;;;;;;4.88;3.45;;;;;;;;;;5078259;28;20040;-67
2023/10/02 01:12:53;;;;;;;3.90;3.13;;;;;;;;;;5079253;28;20067;-67
2023/10/02 01:15:26;;;;;;;4.43;3.03;;;;;;;;;;5084557;28;20044;-68
2023/10/02 01:18:21;;;;;;;4.82;3.50;;;;;;;;;;5086865;28;20055;-68
2023/10/02 01:20:53;;;;;;;4.50;3.35;;;;;;;;;;5085133;28;20060;-67
2023/10/02 01:23:25;;;;;;;5.25;3.50;;;;;;;;;;5082763;28;20051;-67
2023/10/02 01:26:00;;;;;;;3.40;3.10;;;;;;;;;;5086191;28;20476;-67
2023/10/02 01:28:32;;;;;;;4.53;3.53;;;;;;;;;;5087377;28;20040;-68
2023/10/02 01:31:31;;;;;;;4.47;3.53;;;;;;;;;;5082278;28;20388;-67
2023/10/02 01:33:52;;;;;;;7.38;3.60;;;;;;;;;;5088685;28;20055;-67
2023/10/02 01:36:20;;;;;;;5.22;3.60;;;;;;;;;;5085945;28;20063;-67
2023/10/02 01:38:49;;;;;;;4.00;3.40;;;;;;;;;;5087933;28;20066;-67
2023/10/02 01:41:20;;;;;;;4.72;3.47;;;;;;;;;;5083294;28;20138;-67
2023/10/02 01:43:49;;;;;;;4.07;3.33;;;;;;;;;;5083364;28;20137;-67
2023/10/02 01:46:18;;;;;;;6.75;3.95;;;;;;;;;;5083344;28;20125;-68
2023/10/02 01:48:51;;;;;;;4.22;3.40;;;;;;;;;;5086514;28;20070;-67
2023/10/02 01:51:26;;;;;;;4.47;3.45;;;;;;;;;;5084140;28;20469;-67
2023/10/02 01:53:56;;;;;;;6.03;3.67;;;;;;;;;;5083334;28;20043;-68
2023/10/02 01:56:27;;;;;;;4.68;3.38;;;;;;;;;;5083621;28;20078;-67
2023/10/02 01:59:08;;;;;;;3.67;3.25;;;;;;;;;;5084235;28;20135;-68
2023/10/02 02:01:46;;;;;;;4.20;3.13;;;;;;;;;;5087580;28;20127;-68
2023/10/02 02:04:15;;;;;;;4.97;3.30;;;;;;;;;;5082905;28;20043;-67
2023/10/02 02:06:52;;;;;;;4.30;3.22;;;;;;;;;;5081980;28;20110;-67
2023/10/02 02:09:23;;;;;;;4.82;3.75;;;;;;;;;;5080391;28;20052;-68
2023/10/02 02:12:06;;;;;;;4.28;3.30;;;;;;;;;;5082678;28;20409;-67
2023/10/02 02:14:40;;;;;;;5.50;3.70;;;;;;;;;;5083030;28;20044;-67
2023/10/02 02:17:11;;;;;;;4.38;3.28;;;;;;;;;;5084169;28;20150;-67
2023/10/02 02:19:47;;;;;;;6.15;3.70;;;;;;;;;;5081971;28;20048;-68
2023/10/02 02:22:17;;;;;;;4.28;2.92;;;;;;;;;;5084410;28;20093;-68
2023/10/02 02:24:46;;;;;;;4.65;3.25;;;;;;;;;;5081742;28;20052;-68
2023/10/02 02:27:17;;;;;;;4.78;3.47;;;;;;;;;;5081801;28;20254;-68
2023/10/02 02:29:46;;;;;;;4.55;3.17;;;;;;;;;;5079952;28;20047;-67
2023/10/02 02:32:19;;;;;;;5.05;3.67;;;;;;;;;;5080516;28;20149;-67
2023/10/02 02:34:48;;;;;;;4.00;3.30;;;;;;;;;;5076705;28;20131;-68
2023/10/02 02:37:28;;;;;;;4.45;3.47;;;;;;;;;;5079939;28;20504;-67
2023/10/02 02:40:22;;;;;;;3.95;3.15;;;;;;;;;;5080383;28;20501;-67
2023/10/02 02:42:50;;;;;;;3.78;3.15;;;;;;;;;;5081567;28;20079;-68
2023/10/02 02:45:28;;;;;;;5.10;3.40;;;;;;;;;;5080972;28;20090;-67
2023/10/02 02:48:03;;;;;;;3.40;2.75;;;;;;;;;;5080805;28;20316;-67
2023/10/02 02:50:33;;;;;;;5.82;3.50;;;;;;;;;;5081319;28;20043;-67
2023/10/02 02:53:21;;;;;;;4.55;3.42;;;;;;;;;;5081397;28;20510;-67
2023/10/02 02:56:10;;;;;;;4.10;3.35;;;;;;;;;;5081179;28;20082;-67
2023/10/02 02:58:40;;;;;;;5.13;3.28;;;;;;;;;;5074826;28;20047;-67
2023/10/02 03:01:14;;;;;;;4.97;3.40;;;;;;;;;;5078439;28;20101;-67
2023/10/02 03:03:43;;;;;;;5.25;3.75;;;;;;;;;;5083429;28;20050;-68
2023/10/02 03:06:17;;;;;;;4.40;3.17;;;;;;;;;;5078838;28;20390;-67
2023/10/02 03:08:45;;;;;;;5.60;3.67;;;;;;;;;;5080146;28;20068;-67
2023/10/02 03:11:19;;;;;;;5.63;3.80;;;;;;;;;;5082818;28;20137;-67
2023/10/02 03:13:49;;;;;;;4.10;3.23;;;;;;;;;;5081546;28;20048;-67
2023/10/02 03:16:18;;;;;;;3.22;2.92;;;;;;;;;;5083654;28;20098;-67
2023/10/02 03:18:49;;;;;;;3.60;2.95;;;;;;;;;;5078315;28;20045;-67
2023/10/02 03:21:22;;;;;;;4.68;3.58;;;;;;;;;;5079140;28;20071;-67
2023/10/02 03:23:53;;;;;;;4.47;3.40;;;;;;;;;;5080500;28;20053;-67
2023/10/02 03:26:39;;;;;;;4.80;3.10;;;;;;;;;;5082965;28;20059;-67
2023/10/02 03:29:16;;;;;;;3.90;2.80;;;;;;;;;;5080321;28;20044;-67
2023/10/02 03:31:49;;;;;;;6.30;3.53;;;;;;;;;;5076263;28;20075;-67
2023/10/02 03:34:28;;;;;;;4.60;3.22;;;;;;;;;;5082400;28;20131;-67
2023/10/02 03:37:00;;;;;;;5.10;3.42;;;;;;;;;;5079925;28;20048;-68
2023/10/02 03:42:21;;;;;;;4.38;3.42;;;;;;;;;;5084201;28;20043;-68
2023/10/02 03:44:53;;;;;;;5.13;3.85;;;;;;;;;;5083890;28;20052;-68
2023/10/02 03:47:22;;;;;;;5.32;3.70;;;;;;;;;;5081327;28;20048;-69
2023/10/02 03:49:51;;;;;;;5.13;3.70;;;;;;;;;;5080964;28;20048;-67
2023/10/02 03:52:19;;;;;;;7.30;3.88;;;;;;;;;;5080955;28;20549;-67
2023/10/02 03:54:49;;;;;;;4.95;3.85;;;;;;;;;;5087083;28;20255;-67
2023/10/02 04:00:17;;;;;;;3.92;3.53;;;;;;;;;;5079731;28;20117;-67
2023/10/02 04:02:46;;;;;;;5.10;3.53;;;;;;;;;;5081350;28;20142;-67
2023/10/02 04:05:30;;;;;;;5.53;3.38;;;;;;;;;;5079748;28;20056;-67
2023/10/02 04:08:12;;;;;;;7.15;4.15;;;;;;;;;;5082114;28;20180;-67
2023/10/02 04:11:02;;;;;;;4.38;3.40;;;;;;;;;;5083691;28;20816;-67
2023/10/02 04:13:33;;;;;;;4.57;3.35;;;;;;;;;;5083709;28;20052;-67
2023/10/02 04:18:58;;;;;;;4.20;3.10;;;;;;;;;;5077009;28;20054;-67
2023/10/02 04:21:27;;;;;;;6.80;4.40;;;;;;;;;;5076723;28;20057;-68
2023/10/02 04:23:58;;;;;;;4.90;3.50;;;;;;;;;;5082461;28;20135;-67
2023/10/02 04:26:28;;;;;;;5.10;3.83;;;;;;;;;;5081818;28;20051;-68
2023/10/02 04:29:09;;;;;;;5.13;3.70;;;;;;;;;;5080430;28;20036;-67
2023/10/02 04:31:41;;;;;;;4.57;4.03;;;;;;;;;;5077631;28;20048;-67
2023/10/02 04:34:24;;;;;;;7.72;4.05;;;;;;;;;;5078739;28;20165;-67
2023/10/02 04:36:52;;;;;;;5.05;3.42;;;;;;;;;;5077934;28;20051;-67
2023/10/02 04:39:54;;;;;;;5.00;3.70;;;;;;;;;;5084275;28;20040;-68
2023/10/02 04:42:25;;;;;;;5.47;3.88;;;;;;;;;;5081020;28;20062;-67
2023/10/02 04:44:56;;;;;;;5.70;3.83;;;;;;;;;;5084768;28;20052;-68
2023/10/02 04:47:30;;;;;;;6.82;3.70;;;;;;;;;;5081769;28;20497;-68
2023/10/02 04:52:55;;;;;;;5.47;3.80;;;;;;;;;;5083304;28;20236;-67
2023/10/02 04:55:25;;;;;;;5.57;4.28;;;;;;;;;;5086202;28;20051;-67
2023/10/02 04:57:55;;;;;;;4.63;3.53;;;;;;;;;;5082959;28;20076;-68
2023/10/02 05:00:33;;;;;;;5.35;3.35;;;;;;;;;;5084082;28;20710;-68
2023/10/02 05:03:18;;;;;;;5.63;3.90;;;;;;;;;;5086939;28;20148;-67
2023/10/02 05:05:49;;;;;;;4.38;3.42;;;;;;;;;;5088199;28;20054;-67
2023/10/02 05:08:21;;;;;;;5.55;4.05;;;;;;;;;;5082380;28;20048;-67
2023/10/02 05:10:52;;;;;;;4.78;3.95;;;;;;;;;;5086596;28;20044;-68
2023/10/02 05:16:12;;;;;;;4.95;3.80;;;;;;;;;;5085151;28;20495;-67
2023/10/02 05:18:47;;;;;;;5.53;4.10;;;;;;;;;;5086315;28;20048;-67
2023/10/02 05:21:17;;;;;;;5.00;3.95;;;;;;;;;;5079989;28;20036;-67
2023/10/02 05:23:56;;;;;;;4.43;3.25;;;;;;;;;;5086890;28;20414;-67
2023/10/02 05:26:34;;;;;;;5.47;3.88;;;;;;;;;;5084219;28;20050;-65
2023/10/02 05:29:05;;;;;;;5.45;3.95;;;;;;;;;;5081718;28;20052;-66
2023/10/02 05:31:40;;;;;;;4.53;3.63;;;;;;;;;;5081494;28;20044;-66
2023/10/02 05:34:13;;;;;;;5.55;4.20;;;;;;;;;;5085526;28;20105;-66
2023/10/02 05:36:55;;;;;;;5.40;4.10;;;;;;;;;;5086231;28;20040;-66
2023/10/02 05:39:31;;;;;;;4.35;3.70;;;;;;;;;;5083818;28;20051;-66
2023/10/02 05:42:05;;;;;;;6.32;4.10;;;;;;;;;;5086150;28;20051;-66
2023/10/02 05:44:35;;;;;;;7.05;4.03;;;;;;;;;;5084234;28;20800;-66
2023/10/02 05:47:07;;;;;;;5.95;3.92;;;;;;;;;;5083554;28;20040;-66
2023/10/02 05:49:43;;;;;;;4.38;3.50;;;;;;;;;;5083029;28;20097;-66
2023/10/02 05:52:12;;;;;;;5.80;3.90;;;;;;;;;;5076427;28;20078;-66
2023/10/02 05:54:47;;;;;;;6.88;3.72;;;;;;;;;;5082519;28;20079;-66
2023/10/02 05:57:16;;;;;;;6.40;3.50;;;;;;;;;;5082285;28;20054;-66
2023/10/02 05:59:47;;;;;;;4.85;3.60;;;;;;;;;;5084784;28;20043;-66
2023/10/02 06:02:17;;;;;;;6.40;4.35;;;;;;;;;;5079000;28;20044;-66
2023/10/02 06:04:48;;;;;;;5.35;3.90;;;;;;;;;;5077831;28;20467;-66
2023/10/02 06:07:40;;;;;;;4.78;3.70;;;;;;;;;;5084076;28;20044;-66
2023/10/02 06:10:09;;;;;;;6.75;3.88;;;;;;;;;;5081178;28;20043;-66
2023/10/02 06:12:42;;;;;;;5.78;4.28;;;;;;;;;;5082414;28;20535;-66
2023/10/02 06:15:43;;;;;;;5.68;3.83;;;;;;;;;;5080649;28;20051;-66
2023/10/02 06:18:01;;;;;;;5.28;4.00;;;;;;;;;;5084499;28;20538;-66
2023/10/02 06:20:32;;;;;;;5.05;4.18;;;;;;;;;;5084760;28;20134;-66
2023/10/02 06:23:19;;;;;;;5.32;4.03;;;;;;;;;;5079692;28;20083;-66
2023/10/02 06:25:48;;;;;;;5.68;4.07;;;;;;;;;;5084204;28;20044;-66
2023/10/02 06:28:27;;;;;;;4.97;4.15;;;;;;;;;;5082941;28;20040;-65
2023/10/02 06:30:56;;;;;;;4.30;3.58;;;;;;;;;;5086344;28;20496;-66
2023/10/02 06:33:24;;;;;;;4.97;4.32;;;;;;;;;;5084225;28;20062;-66
2023/10/02 06:36:00;;;;;;;5.53;4.28;;;;;;;;;;5078890;28;20036;-66
2023/10/02 06:38:30;;;;;;;3.95;3.63;;;;;;;;;;5082107;28;20076;-66
2023/10/02 06:40:59;;;;;;;5.18;4.22;;;;;;;;;;5080385;28;20044;-66
2023/10/02 06:43:32;;;;;;;6.45;4.70;;;;;;;;;;5046141;28;1141462;-66
2023/10/02 06:46:07;;;;;;;5.63;4.28;;;;;;;;;;5082614;28;20443;-67
2023/10/02 06:48:39;;;;;;;6.00;4.15;;;;;;;;;;5084743;28;20066;-67
2023/10/02 06:51:10;;;;;;;5.93;3.85;;;;;;;;;;5083167;28;20505;-66
2023/10/02 06:53:40;;;;;;;5.22;4.13;;;;;;;;;;5080202;28;20051;-64
2023/10/02 06:56:10;;;;;;;7.97;4.45;;;;;;;;;;5083929;28;20054;-66
2023/10/02 06:58:49;;;;;;;5.50;3.95;;;;;;;;;;5080088;28;20047;-66
2023/10/02 07:01:19;;;;;;;5.03;3.80;;;;;;;;;;5074732;28;20075;-66
2023/10/02 07:03:50;;;;;;;5.32;3.53;;;;;;;;;;5078511;28;20059;-66
2023/10/02 07:06:23;;;;;;;8.38;4.18;;;;;;;;;;5084220;28;20048;-66
2023/10/02 07:11:51;;;;;;;9.88;4.45;;;;;;;;;;5102527;27;20828;-67
2023/10/02 07:14:23;;;;;;;6.60;3.92;;;;;;;;;;5055274;27;20037;-67
2023/10/02 07:17:08;;;;;;;6.78;4.38;;;;;;;;;;5039356;28;20132;-66
2023/10/02 07:19:39;;;;;;;7.25;4.40;;;;;;;;;;5037902;28;20049;-66
2023/10/02 07:22:16;;;;;;;7.53;4.35;;;;;;;;;;5039353;28;20049;-66
2023/10/02 07:24:46;;;;;;;8.38;4.47;;;;;;;;;;5037651;28;20049;-66
2023/10/02 07:27:25;;;;;;;7.68;4.97;;;;;;;;;;5039639;28;20045;-66
2023/10/02 07:29:55;;;;;;;7.55;4.85;;;;;;;;;;5038772;28;20053;-67
2023/10/02 07:32:24;;;;;;;6.28;4.65;;;;;;;;;;5038834;28;20091;-68
2023/10/02 07:34:54;;;;;;;9.32;5.00;;;;;;;;;;5036783;28;20073;-67
2023/10/02 07:37:23;;;;;;;6.55;4.43;;;;;;;;;;5038249;28;20124;-67
2023/10/02 07:39:56;;;;;;;7.75;5.13;;;;;;;;;;5039407;28;20041;-66
2023/10/02 07:42:29;;;;;;;9.93;5.55;;;;;;;;;;5037365;28;20047;-67
2023/10/02 07:45:11;;;;;;;6.63;5.18;;;;;;;;;;5058141;28;20520;-67
2023/10/02 07:47:55;;;;;;;7.75;4.88;;;;;;;;;;5057460;28;20049;-67
2023/10/02 07:50:33;;;;;;;7.73;4.77;;;;;;;;;;5056957;28;20122;-68
2023/10/02 07:53:06;;;;;;;10.88;6.57;;;;;;;;;;5058281;28;20051;-68
2023/10/02 07:55:35;;;;;;;9.57;6.30;;;;;;;;;;5059860;28;20052;-66
2023/10/02 07:58:05;;;;;;;10.23;6.53;;;;;;;;;;5056908;28;20128;-66
2023/10/02 08:00:38;;;;;;;9.32;6.13;;;;;;;;;;5058752;28;20057;-67
2023/10/02 08:03:29;;;;;;;7.93;5.75;;;;;;;;;;5059551;28;20536;-68
2023/10/02 08:05:58;;;;;;;9.18;5.80;;;;;;;;;;5053848;28;20102;-66
2023/10/02 08:08:33;;;;;;;8.95;5.97;;;;;;;;;;5056817;28;20098;-66
2023/10/02 08:11:06;;;;;;;11.63;6.25;;;;;;;;;;5056721;28;20057;-66
2023/10/02 08:13:36;;;;;;;8.77;5.60;;;;;;;;;;5057455;28;20055;-66
2023/10/02 08:16:08;;;;;;;13.60;6.20;;;;;;;;;;5058373;28;20037;-66
2023/10/02 08:18:56;;;;;;;10.77;6.07;;;;;;;;;;5059101;28;20051;-65
2023/10/02 08:21:34;;;;;;;9.38;5.60;;;;;;;;;;5052921;28;20052;-66
2023/10/02 08:24:06;;;;;;;8.70;5.85;;;;;;;;;;5041551;28;20049;-66
2023/10/02 08:26:38;;;;;;;9.48;5.65;;;;;;;;;;5046157;28;20099;-66
2023/10/02 08:29:09;;;;;;;9.35;5.80;;;;;;;;;;5039902;28;20194;-66
2023/10/02 08:31:42;;;;;;;9.35;5.72;;;;;;;;;;5044275;28;20053;-65
2023/10/02 08:34:12;;;;;;;11.82;6.60;;;;;;;;;;5038978;28;20045;-65
2023/10/02 08:36:43;;;;;;;8.25;5.40;;;;;;;;;;5042827;28;20099;-65
2023/10/02 08:39:11;;;;;;;9.77;6.38;;;;;;;;;;5043705;28;20057;-65
2023/10/02 08:41:46;;;;;;;11.15;6.10;;;;;;;;;;5043072;28;20072;-65
2023/10/02 08:44:16;;;;;;;8.10;5.47;;;;;;;;;;5041713;28;20041;-65
2023/10/02 08:46:45;;;;;;;9.88;5.80;;;;;;;;;;5041917;28;20064;-65
2023/10/02 08:49:14;;;;;;;10.25;6.45;;;;;;;;;;5043209;28;20041;-66
2023/10/02 08:51:48;;;;;;;8.43;6.07;;;;;;;;;;5041350;28;20041;-66
2023/10/02 08:54:18;;;;;;;11.77;6.80;;;;;;;;;;5043768;28;20041;-65
2023/10/02 08:56:48;;;;;;;11.23;6.05;;;;;;;;;;5043938;28;21089;-66
2023/10/02 08:59:26;;;;;;;9.45;5.75;;;;;;;;;;5040223;28;20053;-65
2023/10/02 09:02:08;;;;;;;9.18;5.95;;;;;;;;;;5041385;28;20279;-64
2023/10/02 09:04:36;;;;;;;9.30;5.60;;;;;;;;;;5038573;28;20044;-65
2023/10/02 09:07:15;;;;;;;9.18;6.07;;;;;;;;;;5042644;28;20414;-65
2023/10/02 09:09:54;;;;;;;7.38;4.68;;;;;;;;;;5043258;28;20061;-65
2023/10/02 09:12:24;;;;;;;9.65;5.93;;;;;;;;;;5044637;28;20045;-66
2023/10/02 09:15:20;;;;;;;8.20;5.40;;;;;;;;;;5042833;28;20509;-65
2023/10/02 09:17:59;;;;;;;;;;;;;;;;;;5041918;28;20520;-65
2023/10/02 09:20:38;;;;;;;7.22;4.88;;;;;;;;;;5043016;28;19935;-65
2023/10/02 09:23:09;;;;;;;8.73;5.45;;;;;;;;;;5039932;28;20053;-65
2023/10/02 09:25:40;;;;;;;7.80;5.38;;;;;;;;;;5041521;28;20421;-65
2023/10/02 09:28:14;;;;;;;9.25;5.75;;;;;;;;;;5044632;28;20072;-65
2023/10/02 09:30:47;;;;;;;8.93;5.63;;;;;;;;;;5040540;28;20508;-66
2023/10/02 09:33:22;;;;;;;10.57;5.93;;;;;;;;;;5043489;28;20193;-66
2023/10/02 09:36:12;;;;;;;12.23;6.20;;;;;;;;;;5040519;28;20051;-67
2023/10/02 09:39:31;;;;;;;8.98;5.53;;;;;;;;;;5040768;28;20481;-66
2023/10/02 09:41:53;;;;;;;9.40;6.05;;;;;;;;;;5041155;28;20061;-66
2023/10/02 09:44:27;;;;;;;8.98;6.15;;;;;;;;;;5039256;28;20049;-67
2023/10/02 09:46:57;;;;;;;11.10;6.40;;;;;;;;;;5042767;28;20130;-67
2023/10/02 09:49:30;;;;;;;9.55;6.05;;;;;;;;;;5041913;28;20056;-67
2023/10/02 09:52:09;;;;;;;9.57;6.00;;;;;;;;;;5042034;28;20041;-65
2023/10/02 09:54:41;;;;;;;9.35;6.07;;;;;;;;;;5037382;28;20618;-67
2023/10/02 09:57:14;;;;;;;10.05;6.03;;;;;;;;;;5041754;28;20053;-66
2023/10/02 09:59:46;;;;;;;10.38;6.43;;;;;;;;;;5040482;28;20106;-66
2023/10/02 10:05:39;;;;;;;9.48;6.47;;;;;;;;;;5041483;28;20352;-66
2023/10/02 10:10:48;;;;;;;10.13;6.90;;;;;;;;;;5023541;28;20140;-65
2023/10/02 10:13:25;;;;;;;10.77;6.60;;;;;;;;;;5041039;28;20636;-65
2023/10/02 10:16:08;;;;;;;8.85;5.97;;;;;;;;;;5039373;28;20591;-66
2023/10/02 10:21:56;;;;;;;8.18;5.93;;;;;;;;;;5039969;28;20486;-66
2023/10/02 10:24:32;;;;;;;11.00;6.20;;;;;;;;;;5036810;28;20053;-68
2023/10/02 10:27:02;;;;;;;9.85;6.00;;;;;;;;;;5042897;28;20092;-65
2023/10/02 10:29:41;;;;;;;9.80;5.78;;;;;;;;;;5040337;28;20167;-67
2023/10/02 10:32:23;;;;;;;8.93;5.65;;;;;;;;;;5039092;28;20037;-67
2023/10/02 10:37:46;;;;;;;8.48;6.30;;;;;;;;;;5041063;28;20409;-66
2023/10/02 10:40:43;;;;;;;11.27;6.90;;;;;;;;;;5038095;28;20553;-66
2023/10/02 10:43:13;;;;;;;9.07;5.72;;;;;;;;;;5037577;28;20049;-67
2023/10/02 10:45:41;;;;;;;11.68;7.13;;;;;;;;;;5041661;28;20049;-67
2023/10/02 10:48:22;;;;;;;10.60;6.97;;;;;;;;;;5041746;28;20064;-66
2023/10/02 10:50:59;;;;;;;10.25;6.85;;;;;;;;;;5040970;28;20044;-65
2023/10/02 10:53:28;;;;;;;11.43;7.10;;;;;;;;;;5037434;28;20132;-64
2023/10/02 10:56:03;;;;;;;10.60;6.88;;;;;;;;;;5042398;28;20052;-64
2023/10/02 10:58:33;;;;;;;8.98;6.40;;;;;;;;;;5039963;28;20391;-64
2023/10/02 11:01:05;;;;;;;11.02;7.10;;;;;;;;;;5041617;28;20115;-64
2023/10/02 11:03:38;;;;;;;9.20;6.28;;;;;;;;;;5043524;28;20563;-64
2023/10/02 11:06:09;;;;;;;12.52;7.13;;;;;;;;;;5037696;28;20076;-64
2023/10/02 11:08:38;;;;;;;9.88;6.13;;;;;;;;;;5038119;28;20063;-65
2023/10/02 11:11:19;;;;;;;10.13;6.18;;;;;;;;;;5037542;28;20470;-65
2023/10/02 11:13:52;;;;;;;10.05;6.07;;;;;;;;;;5035879;28;20049;-66
2023/10/02 11:16:30;;;;;;;9.98;6.60;;;;;;;;;;5038215;28;20057;-65
2023/10/02 11:19:14;;;;;;;10.75;6.82;;;;;;;;;;5039065;28;20087;-66
2023/10/02 11:22:02;;;;;;;10.90;5.97;;;;;;;;;;5039966;28;20619;-66
2023/10/02 11:24:33;;;;;;;10.68;6.43;;;;;;;;;;5037519;28;20115;-66
2023/10/02 11:27:06;;;;;;;11.63;6.05;;;;;;;;;;5039832;28;20048;-66
2023/10/02 11:29:40;;;;;;;10.68;6.45;;;;;;;;;;5042644;28;20271;-66
2023/10/02 11:32:23;;;;;;;8.02;5.38;;;;;;;;;;5040835;28;20032;-66
2023/10/02 11:34:59;;;;;;;11.52;6.90;;;;;;;;;;5036999;28;20452;-65
2023/10/02 11:37:29;;;;;;;8.48;5.45;;;;;;;;;;5040004;28;20041;-66
2023/10/02 11:39:58;;;;;;;10.68;7.25;;;;;;;;;;5039843;28;21293;-66
2023/10/02 11:42:26;;;;;;;9.82;6.38;;;;;;;;;;5036906;28;20058;-67
2023/10/02 11:44:55;;;;;;;11.52;6.72;;;;;;;;;;5039710;28;20099;-63
2023/10/02 11:47:26;;;;;;;8.70;6.00;;;;;;;;;;5037815;28;20664;-65
2023/10/02 11:49:57;;;;;;;9.85;6.32;;;;;;;;;;5037509;28;20502;-66
2023/10/02 11:52:25;;;;;;;10.85;7.47;;;;;;;;;;5041491;28;20163;-65
2023/10/02 11:54:55;;;;;;;10.43;6.90;;;;;;;;;;5041465;28;20052;-65
2023/10/02 11:57:23;;;;;;;11.88;6.65;;;;;;;;;;5041455;28;20502;-64
2023/10/02 11:59:52;;;;;;;10.10;6.85;;;;;;;;;;5045041;28;20037;-65
2023/10/02 12:02:20;;;;;;;8.45;5.95;;;;;;;;;;5042347;28;20106;-65
2023/10/02 12:04:52;;;;;;;9.57;6.15;;;;;;;;;;5043543;28;20053;-65
2023/10/02 12:07:21;;;;;;;8.65;5.75;;;;;;;;;;5042016;28;20056;-65
2023/10/02 12:09:52;;;;;;;11.88;7.13;;;;;;;;;;5045059;28;20477;-65
2023/10/02 12:12:22;;;;;;;11.60;6.40;;;;;;;;;;5044779;28;20138;-66
2023/10/02 12:14:51;;;;;;;10.55;6.03;;;;;;;;;;5043742;28;20080;-66
2023/10/02 12:17:20;;;;;;;10.07;6.20;;;;;;;;;;5044340;28;20532;-64
2023/10/02 12:19:50;;;;;;;7.65;5.70;;;;;;;;;;5045306;28;20079;-64
2023/10/02 12:22:19;;;;;;;11.82;6.20;;;;;;;;;;5042167;28;20053;-64
2023/10/02 12:24:47;;;;;;;9.90;6.40;;;;;;;;;;5042586;28;20053;-64
2023/10/02 12:27:17;;;;;;;10.07;7.05;;;;;;;;;;5040967;28;20052;-64
2023/10/02 12:29:47;;;;;;;10.70;6.95;;;;;;;;;;5041411;28;20048;-64
2023/10/02 12:32:18;;;;;;;9.07;6.18;;;;;;;;;;5040455;28;20498;-63
2023/10/02 12:34:47;;;;;;;9.90;6.80;;;;;;;;;;5041330;28;20604;-64
2023/10/02 12:37:18;;;;;;;11.90;7.13;;;;;;;;;;5042414;28;20648;-64
2023/10/02 12:39:47;;;;;;;8.98;6.60;;;;;;;;;;5038637;28;20107;-65
2023/10/02 12:42:16;;;;;;;12.43;6.38;;;;;;;;;;5037061;28;20049;-65
2023/10/02 12:44:44;;;;;;;10.27;6.32;;;;;;;;;;5040134;28;20456;-65
2023/10/02 12:47:15;;;;;;;11.02;6.40;;;;;;;;;;5042497;28;20145;-65
2023/10/02 12:49:43;;;;;;;10.10;6.47;;;;;;;;;;5040423;28;20342;-66
2023/10/02 12:52:12;;;;;;;8.73;5.40;;;;;;;;;;5039471;28;20149;-66
2023/10/02 12:54:42;;;;;;;11.60;7.00;;;;;;;;;;5038807;28;20053;-63
2023/10/02 12:57:11;;;;;;;11.02;7.18;;;;;;;;;;5043174;28;20075;-65
2023/10/02 12:59:40;;;;;;;10.15;6.00;;;;;;;;;;5042668;28;20063;-66
2023/10/02 13:02:08;;;;;;;11.93;6.75;;;;;;;;;;5039825;28;20045;-65
2023/10/02 13:04:38;;;;;;;11.43;6.93;;;;;;;;;;5040797;28;20068;-66
2023/10/02 13:07:08;;;;;;;9.68;6.20;;;;;;;;;;5042454;28;20438;-66
2023/10/02 13:09:36;;;;;;;10.48;6.32;;;;;;;;;;5041708;28;20049;-66
2023/10/02 13:12:05;;;;;;;9.45;6.45;;;;;;;;;;5036241;28;20486;-66
2023/10/02 13:14:34;;;;;;;10.73;6.85;;;;;;;;;;5037988;28;20045;-66
2023/10/02 13:17:02;;;;;;;9.43;6.20;;;;;;;;;;5039437;28;20052;-67
2023/10/02 13:19:33;;;;;;;11.05;6.15;;;;;;;;;;5039233;28;20124;-67
2023/10/02 13:22:03;;;;;;;13.57;6.97;;;;;;;;;;5037609;28;20052;-67
2023/10/02 13:24:31;;;;;;;9.75;6.50;;;;;;;;;;5040723;28;20115;-67
2023/10/02 13:27:00;;;;;;;9.80;6.28;;;;;;;;;;5042528;28;20037;-67
2023/10/02 13:29:28;;;;;;;11.13;6.90;;;;;;;;;;5040887;28;20462;-67
2023/10/02 13:31:57;;;;;;;11.02;6.38;;;;;;;;;;5039871;28;20052;-67
2023/10/02 13:34:25;;;;;;;9.40;6.28;;;;;;;;;;5038976;28;20477;-66
2023/10/02 13:36:54;;;;;;;10.52;6.40;;;;;;;;;;5040669;28;20053;-66
2023/10/02 13:39:24;;;;;;;10.52;6.82;;;;;;;;;;5041351;28;20055;-66
2023/10/02 13:41:53;;;;;;;9.85;6.50;;;;;;;;;;5038764;28;20056;-66
2023/10/02 13:44:22;;;;;;;11.00;6.55;;;;;;;;;;5036333;28;20079;-66
2023/10/02 13:46:51;;;;;;;9.55;6.13;;;;;;;;;;5036949;28;21457;-66
2023/10/02 13:49:21;;;;;;;10.20;5.93;;;;;;;;;;5036219;28;20071;-66
2023/10/02 13:51:49;;;;;;;12.95;6.32;;;;;;;;;;5035179;28;20052;-66
2023/10/02 13:54:18;;;;;;;10.00;6.53;;;;;;;;;;5036302;28;20542;-66
2023/10/02 13:56:48;;;;;;;10.20;6.50;;;;;;;;;;5039992;28;20049;-66
2023/10/02 13:59:16;;;;;;;11.05;6.22;;;;;;;;;;5042630;28;20551;-66
2023/10/02 14:01:46;;;;;;;8.90;6.00;;;;;;;;;;5042966;28;20393;-67
2023/10/02 14:04:15;;;;;;;10.65;6.75;;;;;;;;;;5040437;28;20059;-66
2023/10/02 14:06:45;;;;;;;10.48;6.13;;;;;;;;;;5041004;28;20098;-67
2023/10/02 14:09:14;;;;;;;8.27;6.32;;;;;;;;;;5042813;28;20055;-67
2023/10/02 14:11:43;;;;;;;10.30;6.03;;;;;;;;;;5043017;28;20080;-67
2023/10/02 14:14:13;;;;;;;9.85;6.47;;;;;;;;;;5028004;28;20364;-67
2023/10/02 14:16:42;;;;;;;10.20;6.85;;;;;;;;;;5022939;28;20734;-68
2023/10/02 14:19:11;;;;;;;9.65;6.65;;;;;;;;;;5021717;28;20076;-66
2023/10/02 14:21:39;;;;;;;10.40;6.30;;;;;;;;;;5021194;28;20469;-66
2023/10/02 14:24:09;;;;;;;9.32;6.20;;;;;;;;;;5027958;28;20048;-67
2023/10/02 14:26:38;;;;;;;10.20;6.18;;;;;;;;;;5042767;28;20045;-65
2023/10/02 14:29:11;;;;;;;8.93;5.82;;;;;;;;;;5040782;28;20459;-66
2023/10/02 14:31:44;;;;;;;9.48;6.25;;;;;;;;;;5038367;28;20139;-65
2023/10/02 14:34:12;;;;;;;11.05;7.15;;;;;;;;;;5038908;28;20044;-66
2023/10/02 14:36:40;;;;;;;10.20;6.35;;;;;;;;;;5039527;28;20126;-65
2023/10/02 14:39:09;;;;;;;8.80;6.53;;;;;;;;;;5041918;28;20048;-65
2023/10/02 14:41:40;;;;;;;12.77;6.28;;;;;;;;;;5040841;28;20103;-66
2023/10/02 14:44:08;;;;;;;10.80;6.32;;;;;;;;;;5038337;28;20057;-67
2023/10/02 14:46:39;;;;;;;9.40;6.20;;;;;;;;;;5041787;28;20454;-66
2023/10/02 14:49:11;;;;;;;11.02;6.28;;;;;;;;;;5035510;28;20437;-67
2023/10/02 14:51:40;;;;;;;9.88;6.45;;;;;;;;;;5033125;28;20095;-66
2023/10/02 14:54:08;;;;;;;9.13;6.38;;;;;;;;;;5041527;28;20049;-66
2023/10/02 14:56:37;;;;;;;10.25;6.00;;;;;;;;;;5039539;28;20049;-66
2023/10/02 14:59:06;;;;;;;10.32;7.03;;;;;;;;;;5038843;28;20045;-66
2023/10/02 15:01:35;;;;;;;9.90;6.55;;;;;;;;;;5039584;28;20409;-67
2023/10/02 15:04:03;;;;;;;10.43;6.60;;;;;;;;;;5039705;28;20049;-66
2023/10/02 15:06:33;;;;;;;11.18;6.45;;;;;;;;;;5040625;28;20053;-67
2023/10/02 15:09:02;;;;;;;9.55;6.15;;;;;;;;;;5042095;28;20041;-66
2023/10/02 15:11:36;;;;;;;10.65;7.20;;;;;;;;;;5041742;28;20041;-66
2023/10/02 15:14:04;;;;;;;8.77;6.32;;;;;;;;;;5041576;28;20206;-67
2023/10/02 15:16:34;;;;;;;9.30;6.20;;;;;;;;;;5041149;28;20385;-66
2023/10/02 15:19:03;;;;;;;9.27;6.13;;;;;;;;;;5040986;28;20078;-67
2023/10/02 15:21:32;;;;;;;9.38;6.10;;;;;;;;;;5042449;28;20044;-67
2023/10/02 15:24:03;;;;;;;11.20;6.70;;;;;;;;;;5043480;28;20067;-67
2023/10/02 15:26:33;;;;;;;10.10;6.25;;;;;;;;;;5043358;28;20053;-66
2023/10/02 15:29:04;;;;;;;9.23;6.30;;;;;;;;;;5041709;28;20512;-67
2023/10/02 15:31:33;;;;;;;8.65;6.05;;;;;;;;;;5042099;28;20118;-66
2023/10/02 15:34:02;;;;;;;10.02;6.75;;;;;;;;;;5045255;28;20441;-66
2023/10/02 15:36:31;;;;;;;10.15;6.15;;;;;;;;;;5046459;28;20103;-67
2023/10/02 15:39:02;;;;;;;8.63;6.10;;;;;;;;;;5044407;28;20041;-67
2023/10/02 15:41:33;;;;;;;11.45;7.03;;;;;;;;;;5046656;28;20053;-66
2023/10/02 15:44:02;;;;;;;9.25;6.45;;;;;;;;;;5045847;28;20482;-67
2023/10/02 15:46:32;;;;;;;9.80;6.15;;;;;;;;;;5046074;28;20048;-66